Time;durP1;ratioP1;P1;durP2;ratioP2;P2;SDS_P1;SDS_P2;PMS_P1;PMS_P2;Temp;Humidity;BMP_temperature;BMP_pressure;BME280_temperature;BME280_humidity;BME280_pressure;Samples;Min_cycle;Max_cycle;Signal;HPM_P1;HPM_P2
2022/04/16 00:02:00;;;;;;;4.82;3.88;;;18.00;1.00;;;;;;5057789;28;20037;-89
2022/04/16 00:04:29;;;;;;;4.43;4.00;;;17.90;1.00;;;;;;5055434;28;20020;-89
2022/04/16 00:06:56;;;;;;;4.57;3.83;;;17.70;1.00;;;;;;5055351;28;20056;-89
2022/04/16 00:09:22;;;;;;;5.18;4.35;;;17.70;1.00;;;;;;5055498;28;20016;-89
2022/04/16 00:11:48;;;;;;;4.40;4.00;;;17.60;1.00;;;;;;5050633;28;20494;-89
2022/04/16 00:14:15;;;;;;;4.80;4.30;;;17.40;1.00;;;;;;5056947;28;20128;-89
2022/04/16 00:16:41;;;;;;;5.72;4.30;;;17.40;1.00;;;;;;5055191;28;20413;-89
2022/04/16 00:19:08;;;;;;;5.78;4.32;;;17.30;1.00;;;;;;5055129;28;20025;-89
2022/04/16 00:21:35;;;;;;;4.45;4.05;;;17.40;1.00;;;;;;5055799;28;20507;-90
2022/04/16 00:24:01;;;;;;;4.60;4.20;;;17.40;1.00;;;;;;5050844;28;20488;-89
2022/04/16 00:26:28;;;;;;;4.63;3.90;;;17.30;1.00;;;;;;5054646;28;20021;-89
2022/04/16 00:28:53;;;;;;;8.45;4.47;;;17.40;1.00;;;;;;5056040;28;20040;-89
2022/04/16 00:31:20;;;;;;;5.57;3.90;;;17.30;1.00;;;;;;5053621;28;20082;-89
2022/04/16 00:33:47;;;;;;;5.38;4.55;;;17.30;1.00;;;;;;5052309;28;20033;-89
2022/04/16 00:36:16;;;;;;;4.38;3.97;;;17.20;1.00;;;;;;5053973;28;20020;-90
2022/04/16 00:38:42;;;;;;;5.30;4.35;;;17.20;1.00;;;;;;5051187;28;20036;-90
2022/04/16 00:41:08;;;;;;;5.72;4.55;;;17.30;1.00;;;;;;5056570;28;20082;-90
2022/04/16 00:43:34;;;;;;;5.88;4.88;;;17.20;1.00;;;;;;5054409;28;20544;-89
2022/04/16 00:46:00;;;;;;;6.28;5.00;;;17.00;1.00;;;;;;5054857;28;20031;-89
2022/04/16 00:48:26;;;;;;;5.25;4.65;;;17.00;1.00;;;;;;5055011;28;20531;-89
2022/04/16 00:50:54;;;;;;;5.35;4.53;;;17.00;1.00;;;;;;5049885;28;20513;-89
2022/04/16 00:53:20;;;;;;;5.15;4.30;;;17.10;1.00;;;;;;5056038;28;20509;-89
2022/04/16 00:55:46;;;;;;;5.38;4.88;;;17.00;1.00;;;;;;5054622;28;20028;-89
2022/04/16 00:58:12;;;;;;;4.90;4.50;;;17.10;1.00;;;;;;5054232;28;20040;-89
2022/04/16 01:00:38;;;;;;;5.38;4.88;;;16.90;1.00;;;;;;5054708;28;20031;-89
2022/04/16 01:03:05;;;;;;;5.97;4.93;;;16.90;1.00;;;;;;5052044;28;20092;-89
2022/04/16 01:05:30;;;;;;;7.70;5.30;;;16.90;1.00;;;;;;5053141;28;20067;-89
2022/04/16 01:07:58;;;;;;;5.57;4.90;;;16.90;1.00;;;;;;5054063;28;20372;-89
2022/04/16 01:10:29;;;;;;;7.05;5.07;;;16.90;1.00;;;;;;5052666;28;20047;-88
2022/04/16 01:13:00;;;;;;;6.95;5.00;;;16.80;1.00;;;;;;5052180;28;20071;-89
2022/04/16 01:15:27;;;;;;;6.10;4.95;;;16.90;1.00;;;;;;5054248;28;20051;-89
2022/04/16 01:17:54;;;;;;;5.53;5.03;;;16.80;1.00;;;;;;5050414;28;20053;-89
2022/04/16 01:20:20;;;;;;;5.95;5.03;;;16.70;1.00;;;;;;5055838;28;20033;-89
2022/04/16 01:22:47;;;;;;;6.60;5.15;;;16.60;1.00;;;;;;5052870;28;20494;-89
2022/04/16 01:25:14;;;;;;;7.72;5.55;;;16.50;1.00;;;;;;5053824;28;20424;-89
2022/04/16 01:27:43;;;;;;;5.93;5.10;;;16.40;1.00;;;;;;5053998;28;20028;-89
2022/04/16 01:30:11;;;;;;;6.43;5.30;;;16.10;1.00;;;;;;5051271;28;20036;-89
2022/04/16 01:32:37;;;;;;;5.72;5.13;;;16.30;1.00;;;;;;5050781;28;20049;-89
2022/04/16 01:35:05;;;;;;;5.72;5.20;;;16.40;1.00;;;;;;5055701;28;20033;-89
2022/04/16 01:37:34;;;;;;;6.65;5.47;;;16.50;1.00;;;;;;5054011;28;20017;-89
2022/04/16 01:40:01;;;;;;;5.57;5.07;;;16.30;1.00;;;;;;5054050;28;20082;-89
2022/04/16 01:42:29;;;;;;;5.68;5.10;;;16.30;1.00;;;;;;5053919;28;20036;-89
2022/04/16 01:44:59;;;;;;;6.03;5.43;;;16.30;1.00;;;;;;5049991;28;20513;-89
2022/04/16 01:47:24;;;;;;;6.30;5.43;;;16.20;1.00;;;;;;5053995;28;20021;-90
2022/04/16 01:49:51;;;;;;;8.07;5.72;;;16.30;1.00;;;;;;5052820;28;20040;-89
2022/04/16 01:52:16;;;;;;;7.35;5.50;;;16.20;1.00;;;;;;5052325;28;20028;-89
2022/04/16 01:54:42;;;;;;;6.32;5.60;;;16.20;1.00;;;;;;5053626;28;20548;-90
2022/04/16 01:57:08;;;;;;;5.80;5.22;;;16.20;1.00;;;;;;5051713;28;20371;-89
2022/04/16 01:59:33;;;;;;;7.20;6.03;;;16.30;1.00;;;;;;5051261;28;20029;-89
2022/04/16 02:02:00;;;;;;;6.63;5.93;;;16.20;1.00;;;;;;5055529;28;20032;-89
2022/04/16 02:04:26;;;;;;;7.68;5.88;;;16.10;1.00;;;;;;5053918;28;20123;-89
2022/04/16 02:06:52;;;;;;;6.78;5.90;;;16.00;1.00;;;;;;5053921;28;20116;-89
2022/04/16 02:09:18;;;;;;;6.22;5.72;;;16.00;1.00;;;;;;5052629;28;20116;-89
2022/04/16 02:11:44;;;;;;;6.68;6.00;;;16.00;1.00;;;;;;5049676;28;20405;-89
2022/04/16 02:14:09;;;;;;;6.90;6.03;;;16.00;1.00;;;;;;5055819;28;20033;-89
2022/04/16 02:16:35;;;;;;;6.60;6.00;;;16.00;1.00;;;;;;5053918;28;20229;-89
2022/04/16 02:19:01;;;;;;;6.80;6.20;;;15.90;1.00;;;;;;5053330;28;20028;-89
2022/04/16 02:21:32;;;;;;;6.93;6.20;;;15.90;1.00;;;;;;5052163;28;20124;-89
2022/04/16 02:23:58;;;;;;;7.20;6.50;;;15.80;1.00;;;;;;5050306;28;20447;-89
2022/04/16 02:26:25;;;;;;;6.53;5.93;;;15.90;1.00;;;;;;5053327;28;20393;-89
2022/04/16 02:28:50;;;;;;;6.75;6.15;;;15.70;1.00;;;;;;5052130;28;20029;-89
2022/04/16 02:31:16;;;;;;;6.13;5.53;;;15.80;1.00;;;;;;5051922;28;20040;-89
2022/04/16 02:33:42;;;;;;;7.45;6.35;;;15.70;1.00;;;;;;5053100;28;20540;-89
2022/04/16 02:36:08;;;;;;;10.20;6.60;;;15.70;1.00;;;;;;5051499;28;20091;-89
2022/04/16 02:38:34;;;;;;;7.53;6.40;;;15.70;1.00;;;;;;5050474;28;20090;-89
2022/04/16 02:41:00;;;;;;;8.10;6.40;;;15.60;1.00;;;;;;5055928;28;20474;-89
2022/04/16 02:43:26;;;;;;;6.82;6.20;;;15.60;1.00;;;;;;5052771;28;20032;-89
2022/04/16 02:48:36;;;;;;;7.53;6.60;;;15.50;1.00;;;;;;5053773;28;20405;-89
2022/04/16 02:51:02;;;;;;;7.38;6.63;;;15.50;1.00;;;;;;5050286;28;20108;-88
2022/04/16 02:53:30;;;;;;;7.28;6.68;;;15.50;1.00;;;;;;5052037;28;20036;-89
2022/04/16 02:55:55;;;;;;;7.93;7.10;;;15.40;1.00;;;;;;5054493;28;20033;-89
2022/04/16 02:58:22;;;;;;;9.52;6.85;;;15.40;1.00;;;;;;5056639;28;20056;-89
2022/04/16 03:00:48;;;;;;;7.80;6.95;;;15.50;1.00;;;;;;5056786;28;20409;-90
2022/04/16 03:03:14;;;;;;;7.50;6.80;;;15.40;1.00;;;;;;5055772;28;20036;-88
2022/04/16 03:05:41;;;;;;;7.85;7.15;;;15.30;1.00;;;;;;5053254;28;20040;-89
2022/04/16 03:08:07;;;;;;;7.78;7.05;;;15.20;1.00;;;;;;5057396;28;20397;-89
2022/04/16 03:10:34;;;;;;;7.97;7.18;;;15.10;1.00;;;;;;5054902;28;20039;-89
2022/04/16 03:13:00;;;;;;;7.95;7.15;;;15.10;1.00;;;;;;5056292;28;20404;-89
2022/04/16 03:18:11;;;;;;;10.00;7.40;;;15.10;1.00;;;;;;5054721;28;21549;-89
2022/04/16 03:20:38;;;;;;;9.93;7.32;;;15.00;1.00;;;;;;5053116;28;20036;-89
2022/04/16 03:23:04;;;;;;;8.32;7.00;;;15.00;1.00;;;;;;5058343;28;20021;-89
2022/04/16 03:25:30;;;;;;;8.10;7.30;;;14.90;1.00;;;;;;5056202;28;20021;-89
2022/04/16 03:27:56;;;;;;;7.85;6.63;;;15.00;1.00;;;;;;5056058;28;20340;-89
2022/04/16 03:30:23;;;;;;;7.15;6.53;;;14.70;1.00;;;;;;5056502;28;20020;-89
2022/04/16 03:32:49;;;;;;;10.15;7.57;;;14.10;1.00;;;;;;5051658;28;20041;-89
2022/04/16 03:35:18;;;;;;;8.20;7.43;;;14.30;1.00;;;;;;5064818;28;20485;-89
2022/04/16 03:37:44;;;;;;;8.13;7.43;;;14.40;1.00;;;;;;5055450;28;20116;-89
2022/04/16 03:40:10;;;;;;;8.40;7.47;;;14.40;1.00;;;;;;5056309;28;20029;-89
2022/04/16 03:42:47;;;;;;;8.50;7.70;;;14.40;1.00;;;;;;5055799;28;20031;-89
2022/04/16 03:45:21;;;;;;;8.60;7.18;;;14.20;1.00;;;;;;5053118;28;20033;-89
2022/04/16 03:47:53;;;;;;;8.90;7.70;;;14.00;1.00;;;;;;5050456;28;20029;-89
2022/04/16 03:50:20;;;;;;;8.45;7.30;;;14.00;1.00;;;;;;5066195;28;20032;-89
2022/04/16 03:52:47;;;;;;;9.30;8.10;;;14.10;1.00;;;;;;5055637;28;20371;-89
2022/04/16 04:00:43;;;;;;;8.75;7.95;;;14.10;1.00;;;;;;5055691;28;20085;-89
2022/04/16 04:03:10;;;;;;;8.63;7.82;;;14.10;1.00;;;;;;5053943;28;20032;-89
2022/04/16 04:05:37;;;;;;;9.02;7.93;;;14.30;1.00;;;;;;5052354;28;20385;-89
2022/04/16 04:08:08;;;;;;;8.75;7.95;;;14.10;1.00;;;;;;5056828;28;20087;-89
2022/04/16 04:10:34;;;;;;;9.43;8.52;;;14.20;1.00;;;;;;5054862;28;20033;-88
2022/04/16 04:13:00;;;;;;;9.07;8.18;;;14.10;1.00;;;;;;5055121;28;20033;-89
2022/04/16 04:15:29;;;;;;;9.05;8.13;;;13.80;1.00;;;;;;5055429;28;20024;-89
2022/04/16 04:17:56;;;;;;;8.60;7.72;;;13.50;1.00;;;;;;5051802;28;20025;-89
2022/04/16 04:20:22;;;;;;;9.07;7.82;;;13.50;1.00;;;;;;5055423;28;20029;-89
2022/04/16 04:22:47;;;;;;;9.65;7.50;;;13.50;1.00;;;;;;5054181;28;20021;-90
2022/04/16 04:25:13;;;;;;;9.90;7.82;;;13.50;1.00;;;;;;5053646;28;20370;-89
2022/04/16 04:27:39;;;;;;;8.23;7.40;;;13.50;1.00;;;;;;5053850;28;20548;-88
2022/04/16 04:30:05;;;;;;;9.00;8.07;;;13.50;1.00;;;;;;5052806;28;20115;-89
2022/04/16 04:32:31;;;;;;;10.60;9.10;;;13.60;1.00;;;;;;5053422;28;20029;-88
2022/04/16 04:34:57;;;;;;;9.80;8.85;;;13.60;1.00;;;;;;5056091;28;20029;-89
2022/04/16 04:37:23;;;;;;;9.38;8.45;;;13.50;1.00;;;;;;5054700;28;20473;-88
2022/04/16 04:39:49;;;;;;;10.02;9.02;;;13.50;1.00;;;;;;5054844;28;20558;-89
2022/04/16 04:42:29;;;;;;;10.23;9.20;;;13.50;1.00;;;;;;5054254;28;20077;-89
2022/04/16 04:44:55;;;;;;;10.02;9.05;;;13.60;1.00;;;;;;5033495;28;20395;-89
2022/04/16 04:47:21;;;;;;;9.95;9.02;;;13.50;1.00;;;;;;5055599;28;20025;-89
2022/04/16 04:49:47;;;;;;;10.73;9.63;;;13.40;1.00;;;;;;5055210;28;20025;-89
2022/04/16 04:52:26;;;;;;;10.20;9.20;;;13.40;1.00;;;;;;5054602;28;20009;-90
2022/04/16 04:54:53;;;;;;;11.00;9.68;;;13.40;1.00;;;;;;5054534;28;20421;-89
2022/04/16 04:57:18;;;;;;;10.32;9.32;;;13.40;1.00;;;;;;5052717;28;20021;-89
2022/04/16 04:59:44;;;;;;;10.30;9.38;;;13.20;1.00;;;;;;5050358;28;20131;-88
2022/04/16 05:02:10;;;;;;;10.23;9.32;;;13.00;1.00;;;;;;5056274;28;20013;-89
2022/04/16 05:04:36;;;;;;;11.38;9.68;;;13.10;1.00;;;;;;5052634;28;20029;-89
2022/04/16 05:07:07;;;;;;;10.07;9.10;;;13.20;1.00;;;;;;5053502;28;20029;-89
2022/04/16 05:09:33;;;;;;;11.48;10.38;;;13.20;1.00;;;;;;5052976;28;20432;-89
2022/04/16 05:11:58;;;;;;;11.65;10.55;;;13.10;1.00;;;;;;5051007;28;20029;-89
2022/04/16 05:14:24;;;;;;;10.95;9.82;;;13.20;1.00;;;;;;5054200;28;20043;-89
2022/04/16 05:16:50;;;;;;;11.90;9.77;;;12.80;1.00;;;;;;5053828;28;20130;-89
2022/04/16 05:19:16;;;;;;;10.82;8.95;;;12.80;1.00;;;;;;5052963;28;20033;-89
2022/04/16 05:21:42;;;;;;;10.40;9.27;;;12.90;1.00;;;;;;5054102;28;20043;-89
2022/04/16 05:24:08;;;;;;;10.57;9.40;;;13.10;1.00;;;;;;5053114;28;20039;-93
2022/04/16 05:26:34;;;;;;;12.40;10.07;;;13.00;1.00;;;;;;5053585;28;20021;-92
2022/04/16 05:29:00;;;;;;;12.43;9.80;;;13.00;1.00;;;;;;5055083;28;20390;-94
2022/04/16 05:31:27;;;;;;;11.20;10.00;;;13.00;1.00;;;;;;5053140;28;20098;-91
2022/04/16 05:36:38;;;;;;;11.00;9.52;;;13.40;1.00;;;;;;5055044;28;20089;-88
2022/04/16 05:39:03;;;;;;;10.35;9.35;;;13.20;1.00;;;;;;5050653;28;20033;-90
2022/04/16 05:41:29;;;;;;;10.73;9.73;;;12.90;1.00;;;;;;5052744;28;20021;-88
2022/04/16 05:43:55;;;;;;;9.98;9.00;;;12.70;1.00;;;;;;5053154;28;20025;-88
2022/04/16 05:46:21;;;;;;;10.32;9.35;;;12.90;1.00;;;;;;5052149;28;20062;-90
2022/04/16 05:48:47;;;;;;;12.35;10.23;;;13.10;1.00;;;;;;5053888;28;20056;-88
2022/04/16 05:51:13;;;;;;;12.77;10.23;;;12.90;1.00;;;;;;5052254;28;20119;-89
2022/04/16 05:53:39;;;;;;;11.07;10.07;;;12.70;1.00;;;;;;5050966;28;20106;-88
2022/04/16 05:56:05;;;;;;;11.05;9.90;;;12.80;1.00;;;;;;5054482;28;20052;-89
2022/04/16 05:58:31;;;;;;;10.95;9.85;;;12.90;1.00;;;;;;5053744;28;20056;-89
2022/04/16 06:00:57;;;;;;;11.43;10.30;;;12.90;1.00;;;;;;5053978;28;20489;-90
2022/04/16 06:03:24;;;;;;;13.25;9.75;;;13.20;1.00;;;;;;5053605;28;20033;-89
2022/04/16 06:05:52;;;;;;;10.70;9.60;;;13.20;1.00;;;;;;5049390;28;20021;-89
2022/04/16 06:08:18;;;;;;;17.83;10.73;;;13.30;1.00;;;;;;5055364;28;20393;-89
2022/04/16 06:10:44;;;;;;;12.02;10.70;;;13.40;1.00;;;;;;5053912;28;20025;-89
2022/04/16 06:13:10;;;;;;;11.15;10.00;;;13.60;1.00;;;;;;5053270;28;20400;-90
2022/04/16 06:15:40;;;;;;;10.98;9.82;;;13.60;1.00;;;;;;5053377;28;20028;-89
2022/04/16 06:18:06;;;;;;;11.85;10.60;;;13.80;1.00;;;;;;5051478;28;20035;-90
2022/04/16 06:20:31;;;;;;;11.48;10.20;;;13.70;1.00;;;;;;5052545;28;20025;-89
2022/04/16 06:22:57;;;;;;;13.52;10.43;;;13.80;1.00;;;;;;5053221;28;20056;-86
2022/04/16 06:25:24;;;;;;;10.77;9.75;;;13.90;1.00;;;;;;5051864;28;20536;-85
2022/04/16 06:27:50;;;;;;;11.82;9.80;;;13.90;1.00;;;;;;5052497;28;20448;-87
2022/04/16 06:30:16;;;;;;;11.82;10.73;;;14.20;1.00;;;;;;5052376;28;20517;-88
2022/04/16 06:32:42;;;;;;;10.85;9.45;;;14.20;1.00;;;;;;5052497;28;20188;-89
2022/04/16 06:35:08;;;;;;;11.75;10.65;;;14.20;1.00;;;;;;5059617;28;20029;-88
2022/04/16 06:37:34;;;;;;;11.27;10.18;;;14.10;1.00;;;;;;5055814;28;20114;-89
2022/04/16 06:40:01;;;;;;;11.32;10.30;;;14.10;1.00;;;;;;5062578;28;20628;-89
2022/04/16 06:42:27;;;;;;;12.95;10.68;;;14.00;1.00;;;;;;5067868;28;20032;-89
2022/04/16 06:44:53;;;;;;;11.20;10.10;;;14.10;1.00;;;;;;5052915;28;20116;-89
2022/04/16 06:47:18;;;;;;;12.38;10.38;;;14.20;1.00;;;;;;5058725;28;20159;-89
2022/04/16 06:49:44;;;;;;;11.43;10.23;;;14.20;1.00;;;;;;5056711;28;20040;-89
2022/04/16 06:52:09;;;;;;;11.35;9.98;;;14.10;1.00;;;;;;5057241;28;20025;-89
2022/04/16 06:54:36;;;;;;;11.32;10.25;;;14.10;1.00;;;;;;5057036;28;20036;-88
2022/04/16 06:57:02;;;;;;;10.75;9.70;;;14.10;1.00;;;;;;5053516;28;20029;-89
2022/04/16 06:59:28;;;;;;;11.15;10.02;;;14.20;1.00;;;;;;5056217;28;20028;-89
2022/04/16 07:01:54;;;;;;;11.93;9.98;;;14.20;1.00;;;;;;5056338;28;20025;-88
2022/04/16 07:04:19;;;;;;;10.95;9.95;;;14.10;1.00;;;;;;5055073;28;20032;-89
2022/04/16 07:06:45;;;;;;;11.15;10.05;;;14.20;1.00;;;;;;5056903;28;20485;-88
2022/04/16 07:09:11;;;;;;;11.00;9.90;;;14.20;1.00;;;;;;5054608;28;20128;-88
2022/04/16 07:11:36;;;;;;;11.02;10.02;;;14.40;1.00;;;;;;5054515;28;20036;-89
2022/04/16 07:14:02;;;;;;;11.15;10.05;;;14.30;1.00;;;;;;5057809;28;20037;-89
2022/04/16 07:16:28;;;;;;;11.57;10.43;;;14.30;1.00;;;;;;5056428;28;20036;-88
2022/04/16 07:18:53;;;;;;;11.55;10.35;;;14.30;1.00;;;;;;5056314;28;20029;-88
2022/04/16 07:21:19;;;;;;;10.85;9.75;;;14.40;1.00;;;;;;5056010;28;20033;-88
2022/04/16 07:23:44;;;;;;;11.20;10.00;;;14.30;1.00;;;;;;5052183;28;20418;-89
2022/04/16 07:26:10;;;;;;;11.10;9.80;;;14.30;1.00;;;;;;5058257;28;20021;-89
2022/04/16 07:28:36;;;;;;;10.93;9.80;;;14.40;1.00;;;;;;5055808;28;20029;-88
2022/04/16 07:31:01;;;;;;;11.10;9.57;;;14.40;1.00;;;;;;5056182;28;20098;-88
2022/04/16 07:33:30;;;;;;;11.73;10.52;;;14.50;1.00;;;;;;5056375;28;20561;-88
2022/04/16 07:35:56;;;;;;;10.38;9.38;;;14.50;1.00;;;;;;5052725;28;20048;-89
2022/04/16 07:38:22;;;;;;;12.00;10.07;;;14.50;1.00;;;;;;5056578;28;20052;-88
2022/04/16 07:40:48;;;;;;;10.48;9.15;;;14.50;1.00;;;;;;5055325;28;20371;-88
2022/04/16 07:43:17;;;;;;;10.75;9.20;;;14.70;1.00;;;;;;5053381;28;20029;-89
2022/04/16 07:45:44;;;;;;;10.02;9.05;;;14.70;1.00;;;;;;5055651;28;20515;-89
2022/04/16 07:48:10;;;;;;;10.27;9.27;;;14.70;1.00;;;;;;5054057;28;20076;-89
2022/04/16 07:50:35;;;;;;;10.90;8.52;;;14.80;1.00;;;;;;5053723;28;20049;-88
2022/04/16 07:53:02;;;;;;;9.85;8.82;;;14.80;1.00;;;;;;5056503;28;20120;-88
2022/04/16 07:55:31;;;;;;;9.85;8.88;;;14.80;1.00;;;;;;5055675;28;20453;-89
2022/04/16 07:58:00;;;;;;;9.77;8.38;;;14.90;1.00;;;;;;5055175;28;20126;-89
2022/04/16 08:00:26;;;;;;;9.52;8.63;;;14.80;1.00;;;;;;5056226;28;20021;-89
2022/04/16 08:02:51;;;;;;;9.75;8.80;;;14.90;1.00;;;;;;5051363;28;20583;-89
2022/04/16 08:05:17;;;;;;;9.43;8.63;;;15.00;1.00;;;;;;5057496;28;20109;-89
2022/04/16 08:07:44;;;;;;;9.13;8.23;;;14.90;1.00;;;;;;5055191;28;20029;-89
2022/04/16 08:10:10;;;;;;;8.90;8.10;;;14.90;1.00;;;;;;5055494;28;20060;-88
2022/04/16 08:12:37;;;;;;;11.57;9.63;;;15.20;1.00;;;;;;5055557;28;20028;-88
2022/04/16 08:15:03;;;;;;;10.35;9.35;;;15.30;1.00;;;;;;5052591;28;20083;-89
2022/04/16 08:17:29;;;;;;;10.80;9.35;;;15.20;1.00;;;;;;5054699;28;20029;-89
2022/04/16 08:19:55;;;;;;;9.90;8.90;;;15.30;1.00;;;;;;5054753;28;20029;-89
2022/04/16 08:22:23;;;;;;;9.30;8.30;;;15.30;1.00;;;;;;5053441;28;20432;-89
2022/04/16 08:27:35;;;;;;;9.30;8.40;;;15.50;1.00;;;;;;5055183;28;20145;-89
2022/04/16 08:30:00;;;;;;;9.23;8.32;;;15.60;1.00;;;;;;5051908;28;20124;-88
2022/04/16 08:32:26;;;;;;;9.07;8.18;;;15.80;1.00;;;;;;5055312;28;20127;-88
2022/04/16 08:34:52;;;;;;;10.98;8.52;;;15.90;1.00;;;;;;5055524;28;20040;-88
2022/04/16 08:37:18;;;;;;;9.35;8.55;;;15.90;1.00;;;;;;5054796;28;20017;-89
2022/04/16 08:39:44;;;;;;;9.48;8.65;;;15.90;1.00;;;;;;5054966;28;20040;-88
2022/04/16 08:42:09;;;;;;;9.55;8.63;;;15.80;1.00;;;;;;5052290;28;20013;-88
2022/04/16 08:44:38;;;;;;;8.52;7.72;;;16.00;1.00;;;;;;5052788;28;20110;-89
2022/04/16 08:47:05;;;;;;;9.15;8.15;;;15.90;1.00;;;;;;5054754;28;20497;-89
2022/04/16 08:49:33;;;;;;;8.68;7.82;;;16.10;1.00;;;;;;5054502;28;20067;-88
2022/04/16 08:51:59;;;;;;;8.75;7.85;;;16.30;1.00;;;;;;5054478;28;20516;-88
2022/04/16 08:54:25;;;;;;;10.30;8.05;;;16.20;1.00;;;;;;5052647;28;20032;-89
2022/04/16 08:56:51;;;;;;;8.40;7.60;;;16.30;1.00;;;;;;5049404;28;20108;-89
2022/04/16 08:59:17;;;;;;;10.48;7.88;;;16.40;1.00;;;;;;5056824;28;20528;-89
2022/04/16 09:01:43;;;;;;;10.80;7.65;;;16.50;1.00;;;;;;5052694;28;20033;-89
2022/04/16 09:04:21;;;;;;;8.63;7.82;;;16.40;1.00;;;;;;5054533;28;20032;-89
2022/04/16 09:07:01;;;;;;;9.52;8.27;;;16.40;1.00;;;;;;5054358;28;20023;-89
2022/04/16 09:09:27;;;;;;;9.30;8.40;;;16.40;1.00;;;;;;5054618;28;20052;-89
2022/04/16 09:11:54;;;;;;;8.07;7.22;;;16.50;1.00;;;;;;5050412;28;20029;-89
2022/04/16 09:14:20;;;;;;;9.48;7.55;;;16.50;1.00;;;;;;5055879;28;20115;-89
2022/04/16 09:16:45;;;;;;;10.10;7.63;;;16.50;1.00;;;;;;5054272;28;20033;-89
2022/04/16 09:19:13;;;;;;;8.43;7.25;;;16.60;1.00;;;;;;5053972;28;20053;-89
2022/04/16 09:21:41;;;;;;;7.63;6.93;;;16.80;1.00;;;;;;5054092;28;20054;-88
2022/04/16 09:24:06;;;;;;;9.18;7.45;;;16.80;1.00;;;;;;5051700;28;20033;-89
2022/04/16 09:26:34;;;;;;;8.35;7.53;;;17.00;1.00;;;;;;5052547;28;20036;-89
2022/04/16 09:29:10;;;;;;;13.98;8.52;;;17.00;1.00;;;;;;5055949;28;20056;-89
2022/04/16 09:31:40;;;;;;;9.20;8.30;;;17.20;1.00;;;;;;5053743;28;20127;-89
2022/04/16 09:34:07;;;;;;;7.68;6.85;;;17.20;1.00;;;;;;5054154;28;20032;-89
2022/04/16 09:36:39;;;;;;;7.70;6.90;;;17.20;1.00;;;;;;5052519;28;20032;-89
2022/04/16 09:39:07;;;;;;;7.97;6.40;;;17.30;1.00;;;;;;5049795;28;20535;-88
2022/04/16 09:41:34;;;;;;;7.80;7.00;;;17.30;1.00;;;;;;5052363;28;20022;-89
2022/04/16 09:44:00;;;;;;;7.07;6.38;;;17.30;1.00;;;;;;5055476;28;20059;-89
2022/04/16 09:46:31;;;;;;;12.07;6.85;;;17.40;1.00;;;;;;5054133;28;20036;-89
2022/04/16 09:49:04;;;;;;;7.68;5.93;;;17.70;1.00;;;;;;5053879;28;20036;-88
2022/04/16 09:51:36;;;;;;;7.82;6.13;;;18.00;1.00;;;;;;5053847;28;20020;-89
2022/04/16 09:54:04;;;;;;;8.73;6.15;;;18.10;1.00;;;;;;5049631;28;20038;-89
2022/04/16 09:56:32;;;;;;;7.57;6.88;;;18.30;1.00;;;;;;5053268;28;20017;-89
2022/04/16 09:59:00;;;;;;;6.45;5.85;;;18.40;1.00;;;;;;5055131;28;20393;-89
2022/04/16 10:01:27;;;;;;;6.50;5.85;;;18.30;1.00;;;;;;5054144;28;20032;-89
2022/04/16 10:03:54;;;;;;;6.60;5.78;;;18.40;1.00;;;;;;5053634;28;20033;-88
2022/04/16 10:06:21;;;;;;;6.90;5.50;;;18.30;1.00;;;;;;5055941;28;20377;-89
2022/04/16 10:08:50;;;;;;;6.13;5.45;;;18.50;1.00;;;;;;5053447;28;20432;-89
2022/04/16 10:11:20;;;;;;;7.03;5.18;;;18.50;1.00;;;;;;5059659;28;20029;-89
2022/04/16 10:14:07;;;;;;;5.72;5.05;;;18.40;1.00;;;;;;5057558;28;20501;-89
2022/04/16 10:16:40;;;;;;;5.30;4.80;;;18.30;1.00;;;;;;5056130;28;20480;-89
2022/04/16 10:19:16;;;;;;;5.28;4.78;;;18.50;1.00;;;;;;5055739;28;20083;-89
2022/04/16 10:21:42;;;;;;;5.18;4.63;;;18.90;1.00;;;;;;5057300;28;20029;-89
2022/04/16 10:24:08;;;;;;;5.55;5.05;;;19.10;1.00;;;;;;5055097;28;20385;-90
2022/04/16 10:26:38;;;;;;;5.60;5.10;;;19.70;1.00;;;;;;5055877;28;20116;-89
2022/04/16 10:29:05;;;;;;;5.15;4.63;;;20.40;1.00;;;;;;5057496;28;20485;-90
2022/04/16 10:31:33;;;;;;;8.27;4.93;;;21.10;1.00;;;;;;5057336;28;20037;-89
2022/04/16 10:34:11;;;;;;;4.80;4.40;;;22.00;1.00;;;;;;5057116;28;20132;-90
2022/04/16 10:36:57;;;;;;;5.50;4.13;;;22.80;1.00;;;;;;5057103;28;20032;-90
2022/04/16 10:39:31;;;;;;;5.88;4.13;;;23.50;1.00;;;;;;5056429;28;20041;-90
2022/04/16 10:41:58;;;;;;;4.30;3.90;;;23.90;1.00;;;;;;5038287;28;20090;-90
2022/04/16 10:44:26;;;;;;;6.95;4.25;;;23.40;1.00;;;;;;5057867;28;20075;-90
2022/04/16 10:46:54;;;;;;;4.70;3.97;;;23.60;1.00;;;;;;5056123;28;20029;-90
2022/04/16 10:49:22;;;;;;;4.82;3.90;;;23.90;1.00;;;;;;5057248;28;20025;-90
2022/04/16 10:51:50;;;;;;;5.60;4.28;;;24.30;1.00;;;;;;5056523;28;20111;-90
2022/04/16 10:54:34;;;;;;;4.13;3.72;;;24.70;1.00;;;;;;5054284;28;20036;-90
2022/04/16 10:57:01;;;;;;;6.88;3.80;;;24.80;1.00;;;;;;5037431;28;20397;-90
2022/04/16 10:59:38;;;;;;;5.43;3.38;;;25.40;1.00;;;;;;5057275;28;20036;-90
2022/04/16 11:02:27;;;;;;;3.80;3.40;;;25.50;1.00;;;;;;5059006;28;20482;-90
2022/04/16 11:05:02;;;;;;;7.65;3.67;;;25.70;1.00;;;;;;5056598;28;20376;-90
2022/04/16 11:07:29;;;;;;;3.33;3.03;;;26.10;1.00;;;;;;5056262;28;20029;-90
2022/04/16 11:09:56;;;;;;;4.15;3.60;;;26.60;1.00;;;;;;5056918;28;20029;-90
2022/04/16 11:12:23;;;;;;;5.85;3.42;;;27.30;1.00;;;;;;5056308;28;20074;-90
2022/04/16 11:14:50;;;;;;;4.10;3.42;;;27.40;1.00;;;;;;5052426;28;20049;-90
2022/04/16 11:17:16;;;;;;;3.65;3.10;;;27.40;1.00;;;;;;5058134;28;20079;-90
2022/04/16 11:19:44;;;;;;;3.45;3.05;;;28.20;1.00;;;;;;5056138;28;20404;-91
2022/04/16 11:22:11;;;;;;;3.53;3.22;;;28.10;1.00;;;;;;5056184;28;20029;-90
2022/04/16 11:24:37;;;;;;;3.63;3.33;;;27.80;1.00;;;;;;5056338;28;20036;-90
2022/04/16 11:35:22;;;;;;;7.05;3.55;;;28.40;1.00;;;;;;5057607;28;20498;-91
2022/04/16 11:37:54;;;;;;;3.50;3.20;;;28.50;1.00;;;;;;5055033;28;20116;-90
2022/04/16 11:40:21;;;;;;;4.97;3.38;;;28.90;1.00;;;;;;5056575;28;20025;-91
2022/04/16 11:42:46;;;;;;;3.95;3.13;;;28.10;1.00;;;;;;5056636;28;20021;-91
2022/04/16 11:45:14;;;;;;;3.33;3.03;;;28.90;1.00;;;;;;5054453;28;20488;-90
2022/04/16 11:47:39;;;;;;;3.95;3.00;;;28.70;1.00;;;;;;5053746;28;20033;-90
2022/04/16 11:50:07;;;;;;;4.72;3.30;;;28.80;1.00;;;;;;5057481;28;20393;-91
2022/04/16 11:52:35;;;;;;;9.63;3.40;;;28.70;1.00;;;;;;5055843;28;20489;-90
2022/04/16 11:55:03;;;;;;;3.38;3.08;;;29.20;1.00;;;;;;5056492;28;20311;-91
2022/04/16 11:57:28;;;;;;;3.92;3.50;;;29.70;1.00;;;;;;5055908;28;20025;-90
2022/04/16 12:00:04;;;;;;;3.90;3.10;;;30.10;1.00;;;;;;5051596;28;20033;-90
2022/04/16 12:02:32;;;;;;;5.47;3.15;;;30.70;1.00;;;;;;5055438;28;20025;-91
2022/04/16 12:05:15;;;;;;;3.67;3.28;;;31.00;1.00;;;;;;5056936;28;20155;-91
2022/04/16 12:07:48;;;;;;;3.75;3.30;;;30.40;1.00;;;;;;5055542;28;20053;-92
2022/04/16 12:10:14;;;;;;;4.15;3.03;;;29.60;1.00;;;;;;5055961;28;20436;-91
2022/04/16 12:12:52;;;;;;;3.88;2.97;;;30.70;1.00;;;;;;5054069;28;20029;-91
2022/04/16 12:15:26;;;;;;;3.72;2.72;;;30.80;1.00;;;;;;5053068;28;20517;-91
2022/04/16 12:17:54;;;;;;;3.47;2.90;;;30.90;1.00;;;;;;5035200;28;20393;-91
2022/04/16 12:20:21;;;;;;;4.38;2.75;;;32.10;1.00;;;;;;5064842;28;20039;-91
2022/04/16 12:22:58;;;;;;;3.03;2.75;;;33.00;1.00;;;;;;5054465;28;20033;-91
2022/04/16 12:25:24;;;;;;;3.45;3.15;;;32.60;1.00;;;;;;5055615;28;20029;-91
2022/04/16 12:27:52;;;;;;;4.20;3.03;;;31.80;1.00;;;;;;5054992;28;20405;-90
2022/04/16 12:30:26;;;;;;;6.28;2.97;;;31.70;1.00;;;;;;5053906;28;20081;-91
2022/04/16 12:33:10;;;;;;;2.55;2.35;;;31.20;1.00;;;;;;5067185;28;20064;-91
2022/04/16 12:35:41;;;;;;;3.33;2.80;;;32.00;1.00;;;;;;5066036;28;20059;-91
2022/04/16 12:38:07;;;;;;;3.53;2.78;;;32.60;1.00;;;;;;5056093;28;20021;-91
2022/04/16 12:40:34;;;;;;;2.90;2.40;;;31.80;1.00;;;;;;5053372;28;20404;-91
2022/04/16 12:43:01;;;;;;;3.08;2.60;;;32.00;1.00;;;;;;5055644;28;20040;-91
2022/04/16 12:45:30;;;;;;;4.40;2.65;;;31.90;1.00;;;;;;5055222;28;20106;-91
2022/04/16 12:47:56;;;;;;;2.60;2.40;;;31.70;1.00;;;;;;5049351;28;20035;-91
2022/04/16 12:50:22;;;;;;;2.45;2.25;;;31.80;99.90;;;;;;5056343;28;20036;-91
2022/04/16 12:52:48;;;;;;;5.03;2.60;;;31.30;1.00;;;;;;5053201;28;20040;-91
2022/04/16 12:55:15;;;;;;;3.25;2.50;;;31.20;1.00;;;;;;5053216;28;20040;-91
2022/04/16 12:57:42;;;;;;;3.20;2.70;;;31.10;99.90;;;;;;5053546;28;20024;-91
2022/04/16 13:00:09;;;;;;;3.42;2.20;;;31.40;99.90;;;;;;5053123;28;20184;-91
2022/04/16 13:02:37;;;;;;;3.17;2.38;;;31.60;99.90;;;;;;5052515;28;20104;-91
2022/04/16 13:05:03;;;;;;;2.45;2.22;;;30.90;99.90;;;;;;5054772;28;20021;-91
2022/04/16 13:07:29;;;;;;;3.45;2.30;;;30.90;99.90;;;;;;5054610;28;20029;-91
2022/04/16 13:09:54;;;;;;;2.60;2.40;;;30.70;99.90;;;;;;5054453;28;20044;-90
2022/04/16 13:12:20;;;;;;;2.35;2.15;;;30.00;99.90;;;;;;5054384;28;20079;-91
2022/04/16 13:14:46;;;;;;;2.88;2.17;;;30.90;99.90;;;;;;5051229;28;20040;-92
2022/04/16 13:17:13;;;;;;;4.00;2.40;;;29.60;99.90;;;;;;5056074;28;20017;-91
2022/04/16 13:19:38;;;;;;;3.88;2.28;;;29.70;1.00;;;;;;5054773;28;20040;-91